createdAt,value
2023-04-29T00:02:03.712Z,11.90
2023-04-29T00:04:31.882Z,11.77
2023-04-29T00:06:59.242Z,11.38
2023-04-29T00:09:29.230Z,10.27
2023-04-29T00:11:56.327Z,11.18
2023-04-29T00:14:23.241Z,11.95
2023-04-29T00:16:53.209Z,11.65
2023-04-29T00:19:21.336Z,12.60
2023-04-29T00:21:49.421Z,11.35
2023-04-29T00:24:18.048Z,11.35
2023-04-29T00:26:44.984Z,12.38
2023-04-29T00:29:12.176Z,11.80
2023-04-29T00:31:39.221Z,11.30
2023-04-29T00:34:08.229Z,11.35
2023-04-29T00:36:35.301Z,12.20
2023-04-29T00:39:04.172Z,11.55
2023-04-29T00:41:32.163Z,12.35
2023-04-29T00:43:59.301Z,12.73
2023-04-29T00:46:26.260Z,12.20
2023-04-29T00:48:54.487Z,13.00
2023-04-29T00:51:21.696Z,12.65
2023-04-29T00:53:49.765Z,12.68
2023-04-29T00:56:17.480Z,11.68
2023-04-29T00:58:50.394Z,12.27
2023-04-29T01:01:19.411Z,13.02
2023-04-29T01:03:47.791Z,12.40
2023-04-29T01:06:51.214Z,11.93
2023-04-29T01:09:31.983Z,12.52
2023-04-29T01:12:22.935Z,13.05
2023-04-29T01:15:06.916Z,12.15
2023-04-29T01:17:44.481Z,12.88
2023-04-29T01:20:15.228Z,13.80
2023-04-29T01:22:43.146Z,13.00
2023-04-29T01:25:10.139Z,13.10
2023-04-29T01:28:15.855Z,13.38
2023-04-29T01:31:24.098Z,13.30
2023-04-29T01:34:19.158Z,13.57
2023-04-29T01:37:06.468Z,13.35
2023-04-29T01:40:12.181Z,12.82
2023-04-29T01:43:00.150Z,13.07
2023-04-29T01:45:28.998Z,12.77
2023-04-29T01:47:57.619Z,12.85
2023-04-29T01:50:25.909Z,13.45
2023-04-29T01:52:54.644Z,13.10
2023-04-29T01:55:22.575Z,13.27
2023-04-29T01:58:04.519Z,12.60
2023-04-29T02:00:51.686Z,13.98
2023-04-29T02:03:20.622Z,14.00
2023-04-29T02:05:51.671Z,13.83
2023-04-29T02:08:18.952Z,13.10
2023-04-29T02:10:57.964Z,13.23
2023-04-29T02:13:37.816Z,13.43
2023-04-29T02:16:12.950Z,13.95
2023-04-29T02:19:00.168Z,13.02
2023-04-29T02:21:30.098Z,13.50
2023-04-29T02:23:57.125Z,13.98
2023-04-29T02:26:26.532Z,12.70
2023-04-29T02:28:57.334Z,14.68
2023-04-29T02:31:26.123Z,13.02
2023-04-29T02:33:54.905Z,13.23
2023-04-29T02:36:22.093Z,12.82
2023-04-29T02:38:54.650Z,13.90
2023-04-29T02:41:21.614Z,14.13
2023-04-29T02:43:50.504Z,13.95
2023-04-29T02:46:18.953Z,13.50
2023-04-29T02:48:46.156Z,14.18
2023-04-29T02:51:14.587Z,12.93
2023-04-29T02:53:42.916Z,14.07
2023-04-29T02:56:09.905Z,14.10
2023-04-29T02:58:37.821Z,14.43
2023-04-29T03:01:05.017Z,13.73
2023-04-29T03:03:32.442Z,13.05
2023-04-29T03:05:59.756Z,14.73
2023-04-29T03:08:29.298Z,14.02
2023-04-29T03:10:57.157Z,13.30
2023-04-29T03:13:25.285Z,13.82
2023-04-29T03:15:52.227Z,13.60
2023-04-29T03:18:19.222Z,13.77
2023-04-29T03:20:46.064Z,13.20
2023-04-29T03:23:12.991Z,14.00
2023-04-29T03:25:40.792Z,13.80
2023-04-29T03:28:07.987Z,13.73
2023-04-29T03:30:35.581Z,12.98
2023-04-29T03:33:02.576Z,13.18
2023-04-29T03:35:30.591Z,13.27
2023-04-29T03:38:19.638Z,14.02
2023-04-29T03:40:48.529Z,13.67
2023-04-29T03:43:17.197Z,13.60
2023-04-29T03:45:44.264Z,13.45
2023-04-29T03:48:12.543Z,13.40
2023-04-29T03:50:39.939Z,14.50
2023-04-29T03:53:07.240Z,14.65
2023-04-29T03:55:34.419Z,13.65
2023-04-29T03:58:01.819Z,13.90
2023-04-29T04:00:31.319Z,14.20
2023-04-29T04:03:02.689Z,13.60
2023-04-29T04:05:31.926Z,13.02
2023-04-29T04:08:06.375Z,13.48
2023-04-29T04:10:41.958Z,13.88
2023-04-29T04:13:26.129Z,14.07
2023-04-29T04:15:53.064Z,14.13
2023-04-29T04:18:20.164Z,13.27
2023-04-29T04:20:47.559Z,13.55
2023-04-29T04:23:14.819Z,13.40
2023-04-29T04:25:49.963Z,14.15
2023-04-29T04:28:36.048Z,13.73
2023-04-29T04:31:12.256Z,15.02
2023-04-29T04:33:43.381Z,13.25
2023-04-29T04:36:10.243Z,15.00
2023-04-29T04:38:39.717Z,13.50
2023-04-29T04:41:11.111Z,13.85
2023-04-29T04:43:41.043Z,14.07
2023-04-29T04:46:16.975Z,13.60
2023-04-29T04:48:55.184Z,13.98
2023-04-29T04:51:22.308Z,12.90
2023-04-29T04:53:49.256Z,13.20
2023-04-29T04:56:22.060Z,12.60
2023-04-29T04:58:49.733Z,14.13
2023-04-29T05:01:16.660Z,13.50
2023-04-29T05:03:44.149Z,13.45
2023-04-29T05:06:15.865Z,12.45
2023-04-29T05:08:54.836Z,13.18
2023-04-29T05:11:25.947Z,13.50
2023-04-29T05:14:09.571Z,12.75
2023-04-29T05:16:39.000Z,12.70
2023-04-29T05:19:09.775Z,11.68
2023-04-29T05:21:39.346Z,12.32
2023-04-29T05:24:08.894Z,12.32
2023-04-29T05:26:36.272Z,12.13
2023-04-29T05:29:03.178Z,12.77
2023-04-29T05:31:37.312Z,12.13
2023-04-29T05:34:07.409Z,12.35
2023-04-29T05:36:36.755Z,11.52
2023-04-29T05:39:05.230Z,11.10
2023-04-29T05:41:32.143Z,11.60
2023-04-29T05:44:19.391Z,11.27
2023-04-29T05:46:48.833Z,13.15
2023-04-29T05:49:16.451Z,11.07
2023-04-29T05:51:43.439Z,11.73
2023-04-29T05:54:10.462Z,12.30
2023-04-29T05:56:38.895Z,11.10
2023-04-29T05:59:05.768Z,11.90
2023-04-29T06:01:34.418Z,12.07
2023-04-29T06:04:01.673Z,11.40
2023-04-29T06:06:58.098Z,11.85
2023-04-29T06:09:59.017Z,12.38
2023-04-29T06:12:27.526Z,11.98
2023-04-29T06:14:54.589Z,13.15
2023-04-29T06:17:21.594Z,14.18
2023-04-29T06:19:48.437Z,12.82
2023-04-29T06:22:15.363Z,12.95
2023-04-29T06:24:50.569Z,14.23
2023-04-29T06:27:25.952Z,12.95
2023-04-29T06:29:53.277Z,14.63
2023-04-29T06:32:21.145Z,12.88
2023-04-29T06:34:48.135Z,13.70
2023-04-29T06:37:26.309Z,13.82
2023-04-29T06:40:15.545Z,13.40
2023-04-29T06:43:06.122Z,13.65
2023-04-29T06:45:51.847Z,13.80
2023-04-29T06:48:28.140Z,13.15
2023-04-29T06:50:57.306Z,14.85
2023-04-29T06:53:26.098Z,13.70
2023-04-29T06:55:53.107Z,13.82
2023-04-29T06:58:25.509Z,13.98
2023-04-29T07:00:52.741Z,12.63
2023-04-29T07:03:22.736Z,12.02
2023-04-29T07:05:50.715Z,12.80
2023-04-29T07:08:17.585Z,13.80
2023-04-29T07:10:44.457Z,14.05
2023-04-29T07:13:11.267Z,13.82
2023-04-29T07:15:38.380Z,14.10
2023-04-29T07:18:06.818Z,13.48
2023-04-29T07:20:36.966Z,12.75
2023-04-29T07:23:04.237Z,14.20
2023-04-29T07:25:31.103Z,14.40
2023-04-29T07:27:58.176Z,13.90
2023-04-29T07:30:26.435Z,13.10
2023-04-29T07:32:53.469Z,14.00
2023-04-29T07:35:21.916Z,13.40
2023-04-29T07:37:49.439Z,11.80
2023-04-29T07:40:19.402Z,13.77
2023-04-29T07:42:47.932Z,13.80
2023-04-29T07:45:15.606Z,13.57
2023-04-29T07:48:14.643Z,14.50
2023-04-29T07:50:39.486Z,14.70
2023-04-29T07:53:06.824Z,14.07
2023-04-29T07:55:33.832Z,14.63
2023-04-29T07:58:02.775Z,13.48
2023-04-29T08:00:31.567Z,13.63
2023-04-29T08:02:58.772Z,13.45
2023-04-29T08:05:28.199Z,12.98
2023-04-29T08:07:55.558Z,12.90
2023-04-29T08:10:26.274Z,13.63
2023-04-29T08:12:54.509Z,13.98
2023-04-29T08:15:23.461Z,14.18
2023-04-29T08:17:50.549Z,14.05
2023-04-29T08:20:17.567Z,12.68
2023-04-29T08:22:44.333Z,14.02
2023-04-29T08:25:11.480Z,14.40
2023-04-29T08:27:38.328Z,15.50
2023-04-29T08:30:06.177Z,14.18
2023-04-29T08:32:34.634Z,13.18
2023-04-29T08:35:01.948Z,13.68
2023-04-29T08:37:31.531Z,12.05
2023-04-29T08:39:58.297Z,12.18
2023-04-29T08:42:37.897Z,11.98
2023-04-29T08:45:05.610Z,11.77
2023-04-29T08:47:34.539Z,11.63
2023-04-29T08:50:05.934Z,11.48
2023-04-29T08:52:34.314Z,12.48
2023-04-29T08:55:05.719Z,10.75
2023-04-29T08:57:42.515Z,11.95
2023-04-29T09:00:10.916Z,10.95
2023-04-29T09:02:56.499Z,10.73
2023-04-29T09:05:24.414Z,10.77
2023-04-29T09:07:54.002Z,10.63
2023-04-29T09:10:21.405Z,10.95
2023-04-29T09:12:48.289Z,10.80
2023-04-29T09:15:15.195Z,10.98
2023-04-29T09:17:49.039Z,10.13
2023-04-29T09:20:22.343Z,11.32
2023-04-29T09:22:53.548Z,11.20
2023-04-29T09:25:21.129Z,10.90
2023-04-29T09:27:48.017Z,11.85
2023-04-29T09:30:16.678Z,11.65
2023-04-29T09:32:45.791Z,11.98
2023-04-29T09:35:27.355Z,12.18
2023-04-29T09:38:07.833Z,12.07
2023-04-29T09:40:46.590Z,12.57
2023-04-29T09:43:23.803Z,13.10
2023-04-29T09:45:50.868Z,12.32
2023-04-29T09:48:18.735Z,12.00
2023-04-29T09:50:58.850Z,11.55
2023-04-29T09:53:30.407Z,13.20
2023-04-29T09:56:02.790Z,12.27
2023-04-29T09:58:37.020Z,12.50
2023-04-29T10:01:04.984Z,12.88
2023-04-29T10:03:36.662Z,13.25
2023-04-29T10:06:05.781Z,13.15
2023-04-29T10:08:33.832Z,12.68
2023-04-29T10:11:05.940Z,13.60
2023-04-29T10:13:38.697Z,13.18
2023-04-29T10:16:31.537Z,13.23
2023-04-29T10:19:04.355Z,12.70
2023-04-29T10:21:33.827Z,13.93
2023-04-29T10:24:03.753Z,14.45
2023-04-29T10:26:32.182Z,13.43
2023-04-29T10:29:00.287Z,13.50
2023-04-29T10:31:28.689Z,15.27
2023-04-29T10:33:58.055Z,14.70
2023-04-29T10:36:28.641Z,15.48
2023-04-29T10:39:01.814Z,15.10
2023-04-29T10:41:47.280Z,14.68
2023-04-29T10:44:14.572Z,15.63
2023-04-29T10:46:41.514Z,14.90
2023-04-29T10:49:10.804Z,15.57
2023-04-29T10:51:46.851Z,16.40
2023-04-29T10:54:15.490Z,18.38
2023-04-29T10:56:46.042Z,17.15
2023-04-29T10:59:14.579Z,17.17
2023-04-29T11:01:45.488Z,18.27
2023-04-29T11:04:12.756Z,16.75
2023-04-29T11:06:41.528Z,16.85
2023-04-29T11:09:18.600Z,16.27
2023-04-29T11:11:59.305Z,16.05
2023-04-29T11:14:33.118Z,16.08
2023-04-29T11:17:03.187Z,16.35
2023-04-29T11:19:35.571Z,16.30
2023-04-29T11:22:10.284Z,16.85
2023-04-29T11:24:48.370Z,16.98
2023-04-29T11:27:16.338Z,15.52
2023-04-29T11:29:45.362Z,15.90
2023-04-29T11:32:12.424Z,15.52
2023-04-29T11:34:40.196Z,15.35
2023-04-29T11:37:07.016Z,16.50
2023-04-29T11:39:37.048Z,17.85
2023-04-29T11:42:05.414Z,16.73
2023-04-29T11:44:36.026Z,16.40
2023-04-29T11:47:04.241Z,17.35
2023-04-29T11:49:33.053Z,17.35
2023-04-29T11:52:01.506Z,16.38
2023-04-29T11:54:31.737Z,15.07
2023-04-29T11:57:04.944Z,15.60
2023-04-29T12:02:03.186Z,15.07
2023-04-29T12:04:30.605Z,16.55
2023-04-29T12:06:59.781Z,16.88
2023-04-29T12:09:26.717Z,17.55
2023-04-29T12:11:54.035Z,16.73
2023-04-29T12:14:21.182Z,16.42
2023-04-29T12:16:48.433Z,17.13
2023-04-29T12:19:15.968Z,15.77
2023-04-29T12:21:50.179Z,16.35
2023-04-29T12:24:17.264Z,16.73
2023-04-29T12:26:46.914Z,16.35
2023-04-29T12:29:14.704Z,15.38
2023-04-29T12:31:42.136Z,16.38
2023-04-29T12:34:10.316Z,15.88
2023-04-29T12:36:38.351Z,15.20
2023-04-29T12:39:10.139Z,16.75
2023-04-29T12:41:41.418Z,15.27
2023-04-29T12:44:08.785Z,15.02
2023-04-29T12:46:40.820Z,15.38
2023-04-29T12:49:09.496Z,15.32
2023-04-29T12:51:36.921Z,15.00
2023-04-29T12:54:06.372Z,14.75
2023-04-29T12:56:33.488Z,15.52
2023-04-29T12:59:10.615Z,14.23
2023-04-29T13:01:39.779Z,15.85
2023-04-29T13:04:09.337Z,15.52
2023-04-29T13:06:39.873Z,17.75
2023-04-29T13:09:17.465Z,17.17
2023-04-29T13:11:45.682Z,16.20
2023-04-29T13:14:13.750Z,15.18
2023-04-29T13:16:42.316Z,15.07
2023-04-29T13:19:29.579Z,15.07
2023-04-29T13:21:56.211Z,16.02
2023-04-29T13:24:23.124Z,16.42
2023-04-29T13:26:52.424Z,16.23
2023-04-29T13:29:21.100Z,16.65
2023-04-29T13:31:48.356Z,16.60
2023-04-29T13:34:15.818Z,16.77
2023-04-29T13:36:42.820Z,15.40
2023-04-29T13:39:10.738Z,15.80
2023-04-29T13:41:37.724Z,16.23
2023-04-29T13:44:20.659Z,16.58
2023-04-29T13:46:55.138Z,16.85
2023-04-29T13:54:57.474Z,16.80
2023-04-29T13:59:51.812Z,15.88
2023-04-29T14:02:25.943Z,15.23
2023-04-29T14:04:55.862Z,15.73
2023-04-29T14:07:24.262Z,15.65
2023-04-29T14:09:53.150Z,15.18
2023-04-29T14:12:20.677Z,15.18
2023-04-29T14:14:47.584Z,15.32
2023-04-29T14:17:14.628Z,15.68
2023-04-29T14:19:41.647Z,14.82
2023-04-29T14:22:08.784Z,15.07
2023-04-29T14:24:35.789Z,15.52
2023-04-29T14:27:03.257Z,15.73
2023-04-29T14:29:30.965Z,16.25
2023-04-29T14:31:57.871Z,17.92
2023-04-29T14:34:24.786Z,16.88
2023-04-29T14:36:52.213Z,16.17
2023-04-29T14:39:19.120Z,15.77
2023-04-29T14:41:46.860Z,16.20
2023-04-29T14:44:13.969Z,16.90
2023-04-29T14:46:42.171Z,16.75
2023-04-29T14:49:09.557Z,16.70
2023-04-29T14:51:36.507Z,16.90
2023-04-29T14:54:03.496Z,18.08
2023-04-29T14:56:30.840Z,17.80
2023-04-29T14:58:58.511Z,17.13
2023-04-29T15:01:27.907Z,18.13
2023-04-29T15:03:56.289Z,19.13
2023-04-29T15:06:23.374Z,18.05
2023-04-29T15:08:51.324Z,18.88
2023-04-29T15:11:19.598Z,18.58
2023-04-29T15:13:46.480Z,19.20
2023-04-29T15:16:15.886Z,17.33
2023-04-29T15:18:45.648Z,17.75
2023-04-29T15:21:12.874Z,18.27
2023-04-29T15:23:40.889Z,17.90
2023-04-29T15:26:08.386Z,18.88
2023-04-29T15:28:35.293Z,18.83
2023-04-29T15:31:04.740Z,18.85
2023-04-29T15:33:31.855Z,19.10
2023-04-29T15:35:59.041Z,19.48
2023-04-29T15:38:25.944Z,19.42
2023-04-29T15:40:56.967Z,21.17
2023-04-29T15:43:24.511Z,19.17
2023-04-29T15:45:51.667Z,18.50
2023-04-29T15:48:18.726Z,18.83
2023-04-29T15:50:45.774Z,17.92
2023-04-29T15:53:13.319Z,18.02
2023-04-29T15:55:40.986Z,17.40
2023-04-29T15:58:07.926Z,18.58
2023-04-29T16:00:34.682Z,18.85
2023-04-29T16:03:01.572Z,17.48
2023-04-29T16:05:29.050Z,18.17
2023-04-29T16:07:55.956Z,19.00
2023-04-29T16:10:23.551Z,18.45
2023-04-29T16:12:50.512Z,16.15
2023-04-29T16:15:17.492Z,17.20
2023-04-29T16:17:44.316Z,17.00
2023-04-29T16:20:11.801Z,16.95
2023-04-29T16:22:38.648Z,16.55
2023-04-29T16:25:07.097Z,18.25
2023-04-29T16:27:33.979Z,16.58
2023-04-29T16:30:01.553Z,17.27
2023-04-29T16:32:31.667Z,15.23
2023-04-29T16:35:00.123Z,17.23
2023-04-29T16:37:28.867Z,15.88
2023-04-29T16:39:55.967Z,16.60
2023-04-29T16:42:22.915Z,16.20
2023-04-29T16:44:50.023Z,16.05
2023-04-29T16:47:20.288Z,15.73
2023-04-29T16:49:48.077Z,16.88
2023-04-29T16:52:14.993Z,17.35
2023-04-29T16:54:42.086Z,18.15
2023-04-29T16:57:09.110Z,17.27
2023-04-29T16:59:35.942Z,17.50
2023-04-29T17:02:03.058Z,18.58
2023-04-29T17:04:31.432Z,18.25
2023-04-29T17:06:58.587Z,19.08
2023-04-29T17:09:27.419Z,18.45
2023-04-29T17:11:54.380Z,17.77
2023-04-29T17:14:21.256Z,19.55
2023-04-29T17:16:48.164Z,18.67
2023-04-29T17:19:15.112Z,18.77
2023-04-29T17:21:42.564Z,19.02
2023-04-29T17:24:09.727Z,19.52
2023-04-29T17:26:36.495Z,19.85
2023-04-29T17:29:04.156Z,19.90
2023-04-29T17:31:45.134Z,19.85
2023-04-29T17:34:19.227Z,19.40
2023-04-29T17:36:47.643Z,19.00
2023-04-29T17:39:17.069Z,19.00
2023-04-29T17:41:44.327Z,19.38
2023-04-29T17:44:11.363Z,18.90
2023-04-29T17:46:38.559Z,18.42
2023-04-29T17:49:05.881Z,18.27
2023-04-29T17:51:35.834Z,18.27
2023-04-29T17:54:07.383Z,18.20
2023-04-29T17:56:35.187Z,19.17
2023-04-29T17:59:05.177Z,19.08
2023-04-29T18:01:33.052Z,19.85
2023-04-29T18:04:00.184Z,19.92
2023-04-29T18:06:30.299Z,20.50
2023-04-29T18:08:57.800Z,19.83
2023-04-29T18:11:25.291Z,20.58
2023-04-29T18:13:54.319Z,20.35
2023-04-29T18:16:23.411Z,20.50
2023-04-29T18:18:55.996Z,20.88
2023-04-29T18:21:27.961Z,20.17
2023-04-29T18:23:58.085Z,21.10
2023-04-29T18:26:25.038Z,20.05
2023-04-29T18:28:52.062Z,21.65
2023-04-29T18:31:20.176Z,21.52
2023-04-29T18:33:47.845Z,21.17
2023-04-29T18:36:15.007Z,21.30
2023-04-29T18:38:42.154Z,23.33
2023-04-29T18:41:10.363Z,22.25
2023-04-29T18:43:37.306Z,22.40
2023-04-29T18:46:05.787Z,22.73
2023-04-29T18:48:34.300Z,23.00
2023-04-29T18:51:04.173Z,24.58
2023-04-29T18:53:31.971Z,24.05
2023-04-29T18:55:58.913Z,24.52
2023-04-29T18:58:28.403Z,25.75
2023-04-29T19:00:59.458Z,24.17
2023-04-29T19:03:27.259Z,23.73
2023-04-29T19:05:54.283Z,24.85
2023-04-29T19:08:21.499Z,25.75
2023-04-29T19:10:48.317Z,24.38
2023-04-29T19:13:16.257Z,24.88
2023-04-29T19:15:43.361Z,24.25
2023-04-29T19:18:10.413Z,24.40
2023-04-29T19:20:37.359Z,24.25
2023-04-29T19:23:04.639Z,25.23
2023-04-29T19:25:32.958Z,23.45
2023-04-29T19:28:00.121Z,24.40
2023-04-29T19:30:26.989Z,24.40
2023-04-29T19:32:54.051Z,24.35
2023-04-29T19:35:21.084Z,24.83
2023-04-29T19:37:47.984Z,23.75
2023-04-29T19:40:14.910Z,23.08
2023-04-29T19:42:41.882Z,24.02
2023-04-29T19:45:10.176Z,23.88
2023-04-29T19:47:37.072Z,22.08
2023-04-29T19:50:04.733Z,21.17
2023-04-29T19:52:31.840Z,23.05
2023-04-29T19:54:58.869Z,20.70
2023-04-29T19:57:26.191Z,19.70
2023-04-29T19:59:53.391Z,18.95
2023-04-29T20:02:20.510Z,19.23
2023-04-29T20:04:48.394Z,18.88
2023-04-29T20:07:15.592Z,19.02
2023-04-29T20:09:45.152Z,19.35
2023-04-29T20:12:12.076Z,18.83
2023-04-29T20:14:38.884Z,18.80
2023-04-29T20:17:06.286Z,20.77
2023-04-29T20:19:34.900Z,20.55
2023-04-29T20:22:01.801Z,23.60
2023-04-29T20:24:28.687Z,22.55
2023-04-29T20:26:55.752Z,23.77
2023-04-29T20:29:23.204Z,23.45
2023-04-29T20:31:50.178Z,24.17
2023-04-29T20:34:17.347Z,23.80
2023-04-29T20:36:44.240Z,27.27
2023-04-29T20:39:11.110Z,29.35
2023-04-29T20:41:38.146Z,26.70
2023-04-29T20:44:08.209Z,29.48
2023-04-29T20:46:35.515Z,29.58
2023-04-29T20:49:03.217Z,29.45
2023-04-29T20:51:30.150Z,30.20
2023-04-29T20:53:57.010Z,31.67
2023-04-29T20:56:24.831Z,30.90
2023-04-29T20:58:51.977Z,30.50
2023-04-29T21:01:21.773Z,29.10
2023-04-29T21:03:49.041Z,28.60
2023-04-29T21:06:17.660Z,27.73
2023-04-29T21:08:44.700Z,27.58
2023-04-29T21:11:11.451Z,27.38
2023-04-29T21:13:38.342Z,28.63
2023-04-29T21:16:05.456Z,30.05
2023-04-29T21:18:32.316Z,30.75
2023-04-29T21:20:59.103Z,30.33
2023-04-29T21:23:25.872Z,28.98
2023-04-29T21:25:52.720Z,32.35
2023-04-29T21:28:19.594Z,29.90
2023-04-29T21:30:46.415Z,29.10
2023-04-29T21:33:13.251Z,28.65
2023-04-29T21:35:42.353Z,27.48
2023-04-29T21:38:09.381Z,28.52
2023-04-29T21:40:41.610Z,27.58
2023-04-29T21:43:09.761Z,27.45
2023-04-29T21:45:36.703Z,28.08
2023-04-29T21:48:15.820Z,27.35
2023-04-29T21:50:43.676Z,27.05
2023-04-29T21:53:13.219Z,25.83
2023-04-29T21:55:41.847Z,26.15
2023-04-29T21:58:09.097Z,26.48
2023-04-29T22:00:41.230Z,26.60
2023-04-29T22:03:09.957Z,27.63
2023-04-29T22:05:37.516Z,27.00
2023-04-29T22:08:07.417Z,24.92
2023-04-29T22:10:34.904Z,22.10
2023-04-29T22:13:01.889Z,18.77
2023-04-29T22:15:30.043Z,17.23
2023-04-29T22:17:57.868Z,14.68
2023-04-29T22:20:25.773Z,14.13
2023-04-29T22:22:53.006Z,12.45
2023-04-29T22:25:21.744Z,13.13
2023-04-29T22:27:49.439Z,12.23
2023-04-29T22:30:17.896Z,10.98
2023-04-29T22:32:45.730Z,10.95
2023-04-29T22:35:12.683Z,10.95
2023-04-29T22:37:39.660Z,11.18
2023-04-29T22:40:07.793Z,10.25
2023-04-29T22:42:35.437Z,12.05
2023-04-29T22:45:02.659Z,11.20
2023-04-29T22:47:31.639Z,10.43
2023-04-29T22:49:58.556Z,11.27
2023-04-29T22:52:27.757Z,11.32
2023-04-29T22:54:54.710Z,9.82
2023-04-29T22:57:23.743Z,10.20
2023-04-29T22:59:55.050Z,9.68
2023-04-29T23:02:27.542Z,9.20
2023-04-29T23:04:56.059Z,9.17
2023-04-29T23:07:23.563Z,9.50
2023-04-29T23:09:51.262Z,8.88
2023-04-29T23:12:19.874Z,9.23
2023-04-29T23:14:47.112Z,11.68
2023-04-29T23:17:14.038Z,12.05
2023-04-29T23:19:40.899Z,11.10
2023-04-29T23:22:07.679Z,11.18
2023-04-29T23:24:35.718Z,10.80
2023-04-29T23:27:04.183Z,10.23
2023-04-29T23:29:34.469Z,9.20
2023-04-29T23:32:02.003Z,9.20
2023-04-29T23:34:29.148Z,8.30
2023-04-29T23:36:56.034Z,7.57
2023-04-29T23:39:23.084Z,8.10
2023-04-29T23:41:50.099Z,7.95
2023-04-29T23:44:16.974Z,7.85
2023-04-29T23:46:43.987Z,7.72
2023-04-29T23:49:10.919Z,7.78
2023-04-29T23:51:37.794Z,8.13
2023-04-29T23:54:04.654Z,8.00
2023-04-29T23:56:35.947Z,7.95
2023-04-29T23:59:02.966Z,10.10
